createdAt,value
2019-05-09T00:00:04.121Z,98859.55
2019-05-09T00:02:44.223Z,98860.92
2019-05-09T00:05:14.379Z,98859.88
2019-05-09T00:07:44.674Z,98859.59
2019-05-09T00:10:14.354Z,98856.63
2019-05-09T00:12:43.879Z,98859.59
2019-05-09T00:15:14.042Z,98857.44
2019-05-09T00:17:43.963Z,98863.30
2019-05-09T00:20:20.826Z,98863.89
2019-05-09T00:22:50.241Z,98863.11
2019-05-09T00:25:19.718Z,98868.45
2019-05-09T00:27:49.064Z,98860.50
2019-05-09T00:30:22.674Z,98868.26
2019-05-09T00:32:53.344Z,98866.92
2019-05-09T00:35:33.826Z,98866.08
2019-05-09T00:38:08.039Z,98865.29
2019-05-09T00:40:37.661Z,98859.33
2019-05-09T00:43:07.117Z,98869.50
2019-05-09T00:45:58.373Z,98863.59
2019-05-09T00:48:43.960Z,98866.83
2019-05-09T00:51:14.133Z,98879.41
2019-05-09T00:53:44.443Z,98870.31
2019-05-09T00:56:14.120Z,98873.51
2019-05-09T00:58:44.179Z,98871.39
2019-05-09T01:01:15.002Z,98874.09
2019-05-09T01:03:44.547Z,98882.34
2019-05-09T01:06:15.856Z,98882.63
2019-05-09T01:08:45.242Z,98884.98
2019-05-09T01:11:15.603Z,98883.05
2019-05-09T01:13:45.248Z,98882.24
2019-05-09T01:16:14.671Z,98885.11
2019-05-09T01:18:44.132Z,98880.25
2019-05-09T01:21:13.604Z,98879.95
2019-05-09T01:23:43.741Z,98885.04
2019-05-09T01:26:13.416Z,98880.45
2019-05-09T01:28:44.202Z,98881.48
2019-05-09T01:31:13.684Z,98881.71
2019-05-09T01:33:53.276Z,98880.11
2019-05-09T01:36:23.476Z,98877.67
2019-05-09T01:38:53.998Z,98880.11
2019-05-09T01:41:30.500Z,98882.78
2019-05-09T01:43:54.924Z,98882.23
2019-05-09T01:46:24.708Z,98883.05
2019-05-09T01:48:54.137Z,98885.52
2019-05-09T01:51:23.600Z,98885.75
2019-05-09T01:53:54.723Z,98890.83
2019-05-09T01:56:24.017Z,98891.58
2019-05-09T01:58:54.112Z,98889.98
2019-05-09T02:01:24.263Z,98886.95
2019-05-09T02:03:53.961Z,98890.14
2019-05-09T02:06:24.397Z,98893.55
2019-05-09T02:08:54.625Z,98889.25
2019-05-09T02:11:38.424Z,98886.53
2019-05-09T02:13:55.450Z,98888.36
2019-05-09T02:16:44.384Z,98884.58
2019-05-09T02:19:38.912Z,98883.72
2019-05-09T02:22:25.911Z,98886.45
2019-05-09T02:24:55.432Z,98886.26
2019-05-09T02:27:24.791Z,98883.64
2019-05-09T02:29:54.476Z,98886.83
2019-05-09T02:32:24.213Z,98888.42
2019-05-09T02:34:54.772Z,98882.25
2019-05-09T02:37:24.491Z,98890.33
2019-05-09T02:39:53.874Z,98883.31
2019-05-09T02:42:23.407Z,98886.80
2019-05-09T02:44:52.817Z,98874.84
2019-05-09T02:47:24.078Z,98886.33
2019-05-09T02:49:53.422Z,98879.39
2019-05-09T02:52:23.048Z,98882.48
2019-05-09T02:54:52.474Z,98880.55
2019-05-09T02:57:21.853Z,98878.03
2019-05-09T03:00:29.074Z,98874.45
2019-05-09T03:03:19.497Z,98879.73
2019-05-09T03:05:48.802Z,98875.44
2019-05-09T03:08:19.149Z,98876.10
2019-05-09T03:10:49.321Z,98877.33
2019-05-09T03:13:19.296Z,98877.69
2019-05-09T03:15:50.487Z,98885.52
2019-05-09T03:18:19.810Z,98876.91
2019-05-09T03:20:58.513Z,98879.45
2019-05-09T03:23:28.497Z,98882.06
2019-05-09T03:26:00.472Z,98876.38
2019-05-09T03:28:51.525Z,98884.31
2019-05-09T03:31:22.316Z,98883.99
2019-05-09T03:33:51.778Z,98878.25
2019-05-09T03:36:21.309Z,98873.38
2019-05-09T03:38:50.638Z,98877.11
2019-05-09T03:41:20.065Z,98869.18
2019-05-09T03:43:49.435Z,98868.82
2019-05-09T03:46:35.471Z,98871.16
2019-05-09T03:49:07.475Z,98875.55
2019-05-09T03:51:37.929Z,98871.71
2019-05-09T03:54:08.090Z,98875.44
2019-05-09T03:56:41.736Z,98878.72
2019-05-09T03:59:11.110Z,98886.66
2019-05-09T04:01:40.664Z,98878.85
2019-05-09T04:04:10.032Z,98877.41
2019-05-09T04:06:39.508Z,98875.66
2019-05-09T04:09:08.947Z,98876.68
2019-05-09T04:11:38.383Z,98875.84
2019-05-09T04:14:11.419Z,98879.52
2019-05-09T04:16:40.932Z,98877.83
2019-05-09T04:19:10.281Z,98876.44
2019-05-09T04:21:39.744Z,98879.09
2019-05-09T04:24:09.171Z,98885.48
2019-05-09T04:26:50.295Z,98880.16
2019-05-09T04:29:19.699Z,98887.44
2019-05-09T04:31:49.183Z,98888.84
2019-05-09T04:34:18.580Z,98897.39
2019-05-09T04:36:48.485Z,98899.60
2019-05-09T04:39:23.353Z,98899.72
2019-05-09T04:41:49.290Z,98897.48
2019-05-09T04:44:49.899Z,98902.92
2019-05-09T04:47:17.802Z,98899.50
2019-05-09T04:49:47.957Z,98898.92
2019-05-09T04:52:18.146Z,98900.73
2019-05-09T04:54:48.500Z,98900.08
2019-05-09T04:57:18.150Z,98903.43
2019-05-09T04:59:47.708Z,98914.50
2019-05-09T05:02:27.460Z,98912.97
2019-05-09T05:04:58.533Z,98913.55
2019-05-09T05:07:28.714Z,98919.23
2019-05-09T05:09:58.920Z,98917.95
2019-05-09T05:12:28.350Z,98924.66
2019-05-09T05:14:58.154Z,98927.66
2019-05-09T05:17:30.491Z,98916.59
2019-05-09T05:20:00.434Z,98924.73
2019-05-09T05:22:41.738Z,98922.02
2019-05-09T05:25:11.152Z,98926.63
2019-05-09T05:27:40.542Z,98923.06
2019-05-09T05:30:10.084Z,98921.05
2019-05-09T05:32:58.016Z,98926.05
2019-05-09T05:35:32.726Z,98928.87
2019-05-09T05:38:02.199Z,98917.58
2019-05-09T05:40:33.702Z,98914.80
2019-05-09T05:43:02.845Z,98920.61
2019-05-09T05:45:37.500Z,98925.84
2019-05-09T05:48:19.942Z,98921.77
2019-05-09T05:50:49.411Z,98924.88
2019-05-09T05:53:19.031Z,98930.64
2019-05-09T05:55:52.544Z,98928.66
2019-05-09T05:58:19.783Z,98932.58
2019-05-09T06:00:49.331Z,98931.95
2019-05-09T06:03:19.730Z,98941.45
2019-05-09T06:05:51.688Z,98944.61
2019-05-09T06:08:20.276Z,98945.80
2019-05-09T06:10:49.799Z,98950.98
2019-05-09T06:13:19.193Z,98950.55
2019-05-09T06:15:48.617Z,98950.38
2019-05-09T06:18:20.503Z,98951.11
2019-05-09T06:20:49.960Z,98947.95
2019-05-09T06:23:19.469Z,98947.25
2019-05-09T06:25:48.924Z,98943.56
2019-05-09T06:28:18.436Z,98947.12
2019-05-09T06:30:47.943Z,98943.45
2019-05-09T06:33:18.105Z,98945.61
2019-05-09T06:35:48.187Z,98948.92
2019-05-09T06:38:18.699Z,98950.11
2019-05-09T06:40:48.356Z,98946.94
2019-05-09T06:43:19.323Z,98947.36
2019-05-09T06:46:08.170Z,98948.81
2019-05-09T06:48:38.037Z,98952.34
2019-05-09T06:51:07.525Z,98949.05
2019-05-09T06:53:38.710Z,98951.44
2019-05-09T06:56:08.131Z,98941.35
2019-05-09T06:58:38.386Z,98941.59
2019-05-09T07:01:30.362Z,98942.50
2019-05-09T07:04:13.890Z,98947.27
2019-05-09T07:06:49.986Z,98944.88
2019-05-09T07:09:32.044Z,98946.23
2019-05-09T07:12:01.522Z,98945.50
2019-05-09T07:14:41.888Z,98945.60
2019-05-09T07:17:11.158Z,98944.34
2019-05-09T07:19:43.765Z,98943.94
2019-05-09T07:22:29.116Z,98953.16
2019-05-09T07:25:11.235Z,98946.78
2019-05-09T07:27:41.023Z,98943.57
2019-05-09T07:30:20.828Z,98941.17
2019-05-09T07:33:08.604Z,98944.72
2019-05-09T07:35:38.373Z,98945.64
2019-05-09T07:38:08.567Z,98941.65
2019-05-09T07:40:38.642Z,98943.84
2019-05-09T07:43:08.426Z,98939.56
2019-05-09T07:45:40.075Z,98947.90
2019-05-09T07:48:09.557Z,98950.05
2019-05-09T07:50:39.133Z,98945.78
2019-05-09T07:53:08.991Z,98947.14
2019-05-09T07:55:38.674Z,98950.38
2019-05-09T07:58:08.338Z,98950.33
2019-05-09T08:00:38.665Z,98950.78
2019-05-09T08:03:12.609Z,98953.09
2019-05-09T08:05:39.325Z,98946.73
2019-05-09T08:08:11.781Z,98937.13
2019-05-09T08:10:41.258Z,98941.36
2019-05-09T08:13:11.964Z,98941.80
2019-05-09T08:15:41.830Z,98941.38
2019-05-09T08:18:11.348Z,98938.17
2019-05-09T08:20:40.894Z,98943.91
2019-05-09T08:23:10.291Z,98932.89
2019-05-09T08:25:39.837Z,98938.69
2019-05-09T08:28:09.417Z,98937.34
2019-05-09T08:30:40.606Z,98947.20
2019-05-09T08:33:10.555Z,98948.22
2019-05-09T08:35:40.941Z,98948.71
2019-05-09T08:38:10.796Z,98954.72
2019-05-09T08:40:40.749Z,98947.73
2019-05-09T08:43:10.215Z,98951.20
2019-05-09T08:45:39.635Z,98943.65
2019-05-09T08:48:09.604Z,98942.73
2019-05-09T08:50:52.332Z,98943.45
2019-05-09T08:53:22.182Z,98947.17
2019-05-09T08:55:51.604Z,98942.09
2019-05-09T08:58:20.969Z,98942.49
2019-05-09T09:00:53.321Z,98944.01
2019-05-09T09:03:22.822Z,98943.74
2019-05-09T09:05:52.390Z,98940.12
2019-05-09T09:08:21.831Z,98948.28
2019-05-09T09:10:51.377Z,98947.52
2019-05-09T09:13:20.909Z,98944.72
2019-05-09T09:16:08.507Z,98950.22
2019-05-09T09:18:21.643Z,98950.22
2019-05-09T09:20:51.024Z,98947.42
2019-05-09T09:23:20.436Z,98942.45
2019-05-09T09:25:49.900Z,98939.55
2019-05-09T09:28:19.354Z,98942.23
2019-05-09T09:30:48.856Z,98935.52
2019-05-09T09:33:18.235Z,98936.27
2019-05-09T09:35:49.021Z,98932.16
2019-05-09T09:38:18.634Z,98932.70
2019-05-09T09:40:48.152Z,98933.46
2019-05-09T09:43:17.798Z,98927.05
2019-05-09T09:45:48.282Z,98934.58
2019-05-09T09:48:18.665Z,98936.77
2019-05-09T09:50:51.369Z,98940.09
2019-05-09T09:53:19.280Z,98932.06
2019-05-09T09:55:48.669Z,98933.92
2019-05-09T09:58:19.190Z,98935.64
2019-05-09T10:01:18.254Z,98930.62
2019-05-09T10:03:49.009Z,98928.90
2019-05-09T10:06:18.558Z,98920.47
2019-05-09T10:08:49.034Z,98923.95
2019-05-09T10:11:18.637Z,98923.38
2019-05-09T10:13:51.747Z,98919.41
2019-05-09T10:16:35.862Z,98921.94
2019-05-09T10:19:18.550Z,98924.34
2019-05-09T10:21:50.980Z,98920.30
2019-05-09T10:24:22.596Z,98914.45
2019-05-09T10:27:09.192Z,98921.19
2019-05-09T10:29:39.111Z,98916.72
2019-05-09T10:32:12.067Z,98914.53
2019-05-09T10:34:41.568Z,98923.84
2019-05-09T10:37:11.085Z,98909.34
2019-05-09T10:39:40.518Z,98918.64
2019-05-09T10:42:18.812Z,98919.09
2019-05-09T10:44:53.877Z,98918.62
2019-05-09T10:47:27.322Z,98918.72
2019-05-09T10:49:58.209Z,98918.78
2019-05-09T10:52:28.323Z,98919.77
2019-05-09T10:54:59.088Z,98921.44
2019-05-09T10:57:31.607Z,98919.98
2019-05-09T10:59:59.681Z,98909.77
2019-05-09T11:02:29.097Z,98908.63
2019-05-09T11:04:58.509Z,98916.67
2019-05-09T11:07:28.956Z,98918.16
2019-05-09T11:09:59.064Z,98915.14
2019-05-09T11:12:28.967Z,98909.88
2019-05-09T11:14:59.364Z,98914.95
2019-05-09T11:17:29.249Z,98911.00
2019-05-09T11:19:59.044Z,98910.11
2019-05-09T11:22:29.359Z,98914.98
2019-05-09T11:24:59.161Z,98914.53
2019-05-09T11:27:29.364Z,98913.29
2019-05-09T11:29:58.971Z,98906.50
2019-05-09T11:32:28.552Z,98909.16
2019-05-09T11:34:58.081Z,98909.46
2019-05-09T11:37:27.552Z,98910.64
2019-05-09T11:39:58.029Z,98917.23
2019-05-09T11:42:28.485Z,98914.71
2019-05-09T11:44:58.374Z,98917.28
2019-05-09T11:47:36.437Z,98927.16
2019-05-09T11:49:58.910Z,98925.44
2019-05-09T11:52:28.988Z,98932.39
2019-05-09T11:54:58.570Z,98931.30
2019-05-09T11:57:31.334Z,98932.80
2019-05-09T11:59:59.219Z,98926.11
2019-05-09T12:02:28.718Z,98931.56
2019-05-09T12:04:58.227Z,98925.33
2019-05-09T12:07:28.818Z,98925.89
2019-05-09T12:09:59.091Z,98919.80
2019-05-09T12:12:28.667Z,98921.46
2019-05-09T12:14:59.237Z,98920.28
2019-05-09T12:17:40.834Z,98921.73
2019-05-09T12:20:09.607Z,98923.49
2019-05-09T12:22:31.153Z,98934.30
2019-05-09T12:25:00.621Z,98924.98
2019-05-09T12:27:30.085Z,98928.52
2019-05-09T12:30:00.619Z,98929.53
2019-05-09T12:32:30.111Z,98930.62
2019-05-09T12:34:59.533Z,98939.00
2019-05-09T12:37:28.946Z,98936.95
2019-05-09T12:39:58.677Z,98940.39
2019-05-09T12:42:29.277Z,98940.67
2019-05-09T12:44:59.217Z,98946.16
2019-05-09T12:47:29.276Z,98945.73
2019-05-09T12:50:02.688Z,98945.38
2019-05-09T12:52:30.002Z,98950.55
2019-05-09T12:55:02.562Z,98957.81
2019-05-09T12:57:32.732Z,98960.06
2019-05-09T13:00:02.173Z,98963.28
2019-05-09T13:02:31.570Z,98967.30
2019-05-09T13:05:01.089Z,98960.23
2019-05-09T13:07:30.549Z,98967.66
2019-05-09T13:10:00.058Z,98963.95
2019-05-09T13:12:29.449Z,98967.55
2019-05-09T13:14:58.945Z,98958.93
2019-05-09T13:17:33.754Z,98968.77
2019-05-09T13:20:03.974Z,98967.73
2019-05-09T13:22:33.337Z,98956.62
2019-05-09T13:25:03.132Z,98964.69
2019-05-09T13:27:32.757Z,98962.32
2019-05-09T13:30:02.519Z,98959.16
2019-05-09T13:32:32.135Z,98962.33
2019-05-09T13:35:01.716Z,98963.03
2019-05-09T13:37:31.177Z,98960.55
2019-05-09T13:40:00.663Z,98966.05
2019-05-09T13:42:30.130Z,98963.72
2019-05-09T13:44:59.550Z,98971.31
2019-05-09T13:47:29.993Z,98972.65
2019-05-09T13:49:59.673Z,98973.44
2019-05-09T13:52:29.051Z,98971.83
2019-05-09T13:54:58.785Z,98977.31
2019-05-09T13:57:28.348Z,98981.00
2019-05-09T13:59:59.625Z,98984.25
2019-05-09T14:02:29.619Z,98986.41
2019-05-09T14:04:59.261Z,98991.64
2019-05-09T14:07:29.718Z,98991.97
2019-05-09T14:09:59.189Z,98989.16
2019-05-09T14:12:29.027Z,98996.08
2019-05-09T14:14:58.849Z,99006.23
2019-05-09T14:17:44.908Z,99010.45
2019-05-09T14:19:59.643Z,99012.02
2019-05-09T14:22:29.061Z,99010.10
2019-05-09T14:24:58.701Z,99013.16
2019-05-09T14:27:28.973Z,99018.45
2019-05-09T14:29:59.540Z,99017.53
2019-05-09T14:32:33.142Z,99013.36
2019-05-09T14:35:00.379Z,99031.83
2019-05-09T14:37:31.703Z,99025.31
2019-05-09T14:40:04.405Z,99029.86
2019-05-09T14:42:32.204Z,99026.03
2019-05-09T14:45:01.612Z,99028.81
2019-05-09T14:47:31.148Z,99032.58
2019-05-09T14:50:00.547Z,99035.30
2019-05-09T14:52:29.958Z,99032.91
2019-05-09T14:54:59.318Z,99034.67
2019-05-09T14:57:29.812Z,99034.73
2019-05-09T14:59:59.214Z,99039.47
2019-05-09T15:02:28.638Z,99038.55
2019-05-09T15:04:58.676Z,99038.98
2019-05-09T15:07:28.520Z,99044.58
2019-05-09T15:09:59.934Z,99042.30
2019-05-09T15:12:29.287Z,99048.40
2019-05-09T15:14:58.780Z,99051.83
2019-05-09T15:17:28.283Z,99052.73
2019-05-09T15:20:00.601Z,99048.15
2019-05-09T15:22:28.985Z,99050.77
2019-05-09T15:24:59.127Z,99052.59
2019-05-09T15:27:38.481Z,99049.66
2019-05-09T15:30:08.260Z,99055.67
2019-05-09T15:32:37.899Z,99051.20
2019-05-09T15:35:09.001Z,99052.16
2019-05-09T15:37:38.933Z,99054.46
2019-05-09T15:40:09.028Z,99054.63
2019-05-09T15:42:39.084Z,99056.56
2019-05-09T15:45:09.320Z,99065.37
2019-05-09T15:47:38.838Z,99062.38
2019-05-09T15:50:19.175Z,99062.77
2019-05-09T15:52:39.537Z,99058.66
2019-05-09T15:55:09.844Z,99063.06
2019-05-09T15:57:39.439Z,99061.37
2019-05-09T16:00:11.641Z,99062.27
2019-05-09T16:02:41.030Z,99065.75
2019-05-09T16:05:10.874Z,99065.44
2019-05-09T16:07:40.628Z,99061.47
2019-05-09T16:10:10.189Z,99063.02
2019-05-09T16:12:39.625Z,99065.92
2019-05-09T16:15:09.188Z,99063.09
2019-05-09T16:17:39.435Z,99070.13
2019-05-09T16:20:09.427Z,99063.02
2019-05-09T16:22:39.397Z,99063.77
2019-05-09T16:25:09.411Z,99070.94
2019-05-09T16:27:39.004Z,99067.91
2019-05-09T16:30:09.872Z,99076.52
2019-05-09T16:32:39.291Z,99067.44
2019-05-09T16:35:08.870Z,99063.28
2019-05-09T16:37:56.824Z,99061.03
2019-05-09T16:40:09.695Z,99061.84
2019-05-09T16:42:39.131Z,99057.23
2019-05-09T16:45:10.095Z,99068.53
2019-05-09T16:47:39.651Z,99069.89
2019-05-09T16:50:12.104Z,99065.25
2019-05-09T16:52:43.624Z,99076.88
2019-05-09T16:55:18.083Z,99076.61
2019-05-09T16:57:47.803Z,99080.67
2019-05-09T17:00:31.227Z,99079.52
2019-05-09T17:03:00.692Z,99077.31
2019-05-09T17:05:30.107Z,99077.52
2019-05-09T17:07:59.621Z,99088.56
2019-05-09T17:10:29.017Z,99091.91
2019-05-09T17:12:58.803Z,99090.31
2019-05-09T17:15:29.277Z,99097.93
2019-05-09T17:17:58.962Z,99088.08
2019-05-09T17:20:38.269Z,99087.67
2019-05-09T17:23:14.772Z,99090.19
2019-05-09T17:25:42.087Z,99096.30
2019-05-09T17:28:11.551Z,99104.66
2019-05-09T17:30:41.060Z,99107.63
2019-05-09T17:33:10.661Z,99113.25
2019-05-09T17:35:40.038Z,99114.87
2019-05-09T17:38:09.507Z,99114.89
2019-05-09T17:40:39.424Z,99108.67
2019-05-09T17:43:09.105Z,99115.69
2019-05-09T17:45:41.876Z,99110.01
2019-05-09T17:48:09.796Z,99115.34
2019-05-09T17:50:39.309Z,99113.74
2019-05-09T17:53:08.824Z,99114.83
2019-05-09T17:55:38.441Z,99120.02
2019-05-09T17:58:09.087Z,99123.11
2019-05-09T18:00:38.587Z,99123.89
2019-05-09T18:03:07.972Z,99128.16
2019-05-09T18:05:38.978Z,99132.24
2019-05-09T18:08:08.580Z,99142.75
2019-05-09T18:10:38.293Z,99142.55
2019-05-09T18:13:08.265Z,99140.05
2019-05-09T18:15:38.235Z,99148.72
2019-05-09T18:18:07.739Z,99154.59
2019-05-09T18:20:37.921Z,99147.69
2019-05-09T18:23:08.463Z,99145.59
2019-05-09T18:25:38.111Z,99146.91
2019-05-09T18:28:07.683Z,99149.63
2019-05-09T18:30:38.844Z,99151.88
2019-05-09T18:33:13.320Z,99151.09
2019-05-09T18:35:42.837Z,99164.75
2019-05-09T18:38:19.840Z,99170.72
2019-05-09T18:40:49.371Z,99173.84
2019-05-09T18:43:19.008Z,99175.82
2019-05-09T18:45:48.729Z,99170.20
2019-05-09T18:48:18.694Z,99165.36
2019-05-09T18:50:48.280Z,99172.33
2019-05-09T18:53:17.672Z,99174.34
2019-05-09T18:55:47.039Z,99173.70
2019-05-09T18:58:16.582Z,99180.30
2019-05-09T19:00:46.303Z,99186.34
2019-05-09T19:03:15.836Z,99186.20
2019-05-09T19:05:45.231Z,99190.84
2019-05-09T19:08:14.808Z,99191.42
2019-05-09T19:10:44.245Z,99198.75
2019-05-09T19:13:13.973Z,99203.11
2019-05-09T19:16:05.976Z,99201.57
2019-05-09T19:18:43.523Z,99205.67
2019-05-09T19:21:28.808Z,99211.85
2019-05-09T19:23:58.297Z,99217.30
2019-05-09T19:26:36.696Z,99219.73
2019-05-09T19:29:08.092Z,99228.29
2019-05-09T19:31:38.630Z,99221.14
2019-05-09T19:34:09.157Z,99232.20
2019-05-09T19:36:38.614Z,99229.06
2019-05-09T19:39:10.154Z,99233.50
2019-05-09T19:41:40.090Z,99240.36
2019-05-09T19:44:09.926Z,99237.73
2019-05-09T19:46:39.379Z,99239.77
2019-05-09T19:49:08.735Z,99243.68
2019-05-09T19:51:38.176Z,99241.35
2019-05-09T19:54:07.664Z,99241.69
2019-05-09T19:56:37.191Z,99243.15
2019-05-09T19:59:08.048Z,99243.27
2019-05-09T20:01:38.685Z,99245.84
2019-05-09T20:04:08.295Z,99250.89
2019-05-09T20:06:37.839Z,99257.81
2019-05-09T20:09:14.251Z,99259.36
2019-05-09T20:12:05.383Z,99260.38
2019-05-09T20:14:37.874Z,99270.25
2019-05-09T20:17:07.375Z,99278.89
2019-05-09T20:19:36.892Z,99283.13
2019-05-09T20:22:06.407Z,99283.20
2019-05-09T20:24:35.841Z,99282.31
2019-05-09T20:27:05.424Z,99294.51
2019-05-09T20:29:34.800Z,99290.82
2019-05-09T20:32:04.532Z,99295.97
2019-05-09T20:34:34.022Z,99296.84
2019-05-09T20:37:03.432Z,99302.77
2019-05-09T20:39:33.052Z,99300.91
2019-05-09T20:42:02.734Z,99303.60
2019-05-09T20:44:32.312Z,99302.80
2019-05-09T20:47:02.065Z,99310.33
2019-05-09T20:49:31.595Z,99313.02
2019-05-09T20:52:01.293Z,99315.41
2019-05-09T20:54:30.833Z,99316.76
2019-05-09T20:57:00.535Z,99314.64
2019-05-09T20:59:30.279Z,99320.84
2019-05-09T21:01:59.954Z,99326.29
2019-05-09T21:04:29.711Z,99339.50
2019-05-09T21:06:59.388Z,99344.63
2019-05-09T21:09:28.995Z,99343.37
2019-05-09T21:11:58.821Z,99345.17
2019-05-09T21:14:28.485Z,99352.49
2019-05-09T21:16:58.141Z,99351.23
2019-05-09T21:19:27.755Z,99353.65
2019-05-09T21:21:57.398Z,99356.30
2019-05-09T21:24:27.203Z,99357.95
2019-05-09T21:26:56.823Z,99363.06
2019-05-09T21:29:26.401Z,99371.92
2019-05-09T21:31:56.061Z,99371.33
2019-05-09T21:34:25.824Z,99380.45
2019-05-09T21:36:55.344Z,99383.43
2019-05-09T21:39:24.732Z,99381.02
2019-05-09T21:41:54.173Z,99390.34
2019-05-09T21:44:23.574Z,99387.02
2019-05-09T21:46:53.115Z,99396.19
2019-05-09T21:49:22.705Z,99398.06
2019-05-09T21:51:52.165Z,99396.91
2019-05-09T21:54:21.624Z,99392.06
2019-05-09T21:56:51.071Z,99400.13
2019-05-09T21:59:20.455Z,99402.20
2019-05-09T22:01:50.012Z,99402.36
2019-05-09T22:04:19.453Z,99411.77
2019-05-09T22:06:49.041Z,99406.69
2019-05-09T22:09:18.632Z,99414.41
2019-05-09T22:11:48.181Z,99417.28
2019-05-09T22:14:17.661Z,99418.11
2019-05-09T22:16:48.724Z,99422.26
2019-05-09T22:19:18.208Z,99430.45
2019-05-09T22:21:47.653Z,99427.63
2019-05-09T22:24:17.035Z,99426.98
2019-05-09T22:26:46.751Z,99434.71
2019-05-09T22:29:16.889Z,99435.08
2019-05-09T22:31:46.373Z,99432.76
2019-05-09T22:34:15.821Z,99437.91
2019-05-09T22:36:45.333Z,99443.08
2019-05-09T22:39:14.758Z,99443.29
2019-05-09T22:41:44.355Z,99444.34
2019-05-09T22:44:13.870Z,99449.25
2019-05-09T22:46:43.290Z,99445.67
2019-05-09T22:49:12.704Z,99450.30
2019-05-09T22:51:42.154Z,99456.64
2019-05-09T22:54:13.186Z,99459.05
2019-05-09T22:56:42.827Z,99457.73
2019-05-09T22:59:12.332Z,99464.39
2019-05-09T23:01:41.891Z,99460.15
2019-05-09T23:04:11.348Z,99461.23
2019-05-09T23:06:40.710Z,99464.23
2019-05-09T23:09:10.209Z,99458.06
2019-05-09T23:11:40.927Z,99460.15
2019-05-09T23:14:10.449Z,99460.70
2019-05-09T23:16:41.291Z,99467.39
2019-05-09T23:19:10.744Z,99466.05
2019-05-09T23:21:40.190Z,99471.62
2019-05-09T23:24:26.505Z,99464.83
2019-05-09T23:26:42.839Z,99471.75
2019-05-09T23:29:12.357Z,99469.27
2019-05-09T23:32:06.713Z,99475.44
2019-05-09T23:34:36.207Z,99472.39
2019-05-09T23:37:05.552Z,99468.89
2019-05-09T23:39:39.763Z,99474.52
2019-05-09T23:42:09.250Z,99474.44
2019-05-09T23:44:38.773Z,99480.45
2019-05-09T23:47:08.288Z,99480.22
2019-05-09T23:49:37.849Z,99479.63
2019-05-09T23:52:07.165Z,99477.41
2019-05-09T23:54:54.401Z,99480.30
2019-05-09T23:57:41.532Z,99482.95
